sensor_id;sensor_type;location;lat;lon;timestamp;P1;durP1;ratioP1;P2;durP2;ratioP2
43877;SDS011;29815;48.184;11.268;2023-05-10T11:04:19;4.15;;;1.65;;
43877;SDS011;29815;48.184;11.268;2023-05-10T11:06:49;8.27;;;2.10;;
43877;SDS011;29815;48.184;11.268;2023-05-10T11:09:18;6.45;;;1.60;;
43877;SDS011;29815;48.184;11.268;2023-05-10T11:11:48;2.38;;;1.50;;
43877;SDS011;29815;48.184;11.268;2023-05-10T11:14:23;2.60;;;1.35;;
43877;SDS011;29815;48.184;11.268;2023-05-10T11:16:52;2.05;;;1.27;;
43877;SDS011;29815;48.184;11.268;2023-05-10T11:19:24;1.63;;;1.10;;
43877;SDS011;29815;48.184;11.268;2023-05-10T11:22:12;2.53;;;1.77;;
43877;SDS011;29815;48.184;11.268;2023-05-10T11:24:53;1.58;;;0.77;;
43877;SDS011;29815;48.184;11.268;2023-05-10T11:27:26;1.90;;;1.17;;
43877;SDS011;29815;48.184;11.268;2023-05-10T11:29:56;1.48;;;0.95;;
43877;SDS011;29815;48.184;11.268;2023-05-10T11:32:26;9.68;;;1.35;;
43877;SDS011;29815;48.184;11.268;2023-05-10T11:34:57;1.73;;;1.10;;
43877;SDS011;29815;48.184;11.268;2023-05-10T11:37:28;3.17;;;1.13;;
43877;SDS011;29815;48.184;11.268;2023-05-10T11:39:59;2.85;;;1.58;;
43877;SDS011;29815;48.184;11.268;2023-05-10T11:42:30;5.35;;;1.92;;
43877;SDS011;29815;48.184;11.268;2023-05-10T11:45:00;1.98;;;1.23;;
43877;SDS011;29815;48.184;11.268;2023-05-10T11:47:30;2.40;;;1.10;;
43877;SDS011;29815;48.184;11.268;2023-05-10T11:50:01;2.65;;;1.15;;
43877;SDS011;29815;48.184;11.268;2023-05-10T11:52:35;2.08;;;1.02;;
43877;SDS011;29815;48.184;11.268;2023-05-10T11:55:05;2.38;;;1.23;;
43877;SDS011;29815;48.184;11.268;2023-05-10T11:57:35;3.33;;;1.63;;
43877;SDS011;29815;48.184;11.268;2023-05-10T12:00:06;1.83;;;1.10;;
43877;SDS011;29815;48.184;11.268;2023-05-10T12:02:37;1.80;;;1.10;;
43877;SDS011;29815;48.184;11.268;2023-05-10T12:05:09;1.58;;;1.23;;
43877;SDS011;29815;48.184;11.268;2023-05-10T12:07:39;2.53;;;1.35;;
43877;SDS011;29815;48.184;11.268;2023-05-10T12:10:09;4.35;;;1.65;;
43877;SDS011;29815;48.184;11.268;2023-05-10T12:12:43;1.70;;;1.08;;
43877;SDS011;29815;48.184;11.268;2023-05-10T12:15:17;3.03;;;1.55;;
43877;SDS011;29815;48.184;11.268;2023-05-10T12:17:49;3.50;;;2.67;;
43877;SDS011;29815;48.184;11.268;2023-05-10T12:20:21;3.00;;;1.10;;
43877;SDS011;29815;48.184;11.268;2023-05-10T12:22:56;1.42;;;0.80;;
43877;SDS011;29815;48.184;11.268;2023-05-10T12:25:29;2.88;;;1.35;;
43877;SDS011;29815;48.184;11.268;2023-05-10T12:28:02;2.42;;;1.10;;
43877;SDS011;29815;48.184;11.268;2023-05-10T12:30:35;1.60;;;0.90;;
43877;SDS011;29815;48.184;11.268;2023-05-10T12:33:07;2.95;;;1.30;;
43877;SDS011;29815;48.184;11.268;2023-05-10T12:35:50;1.33;;;0.90;;
43877;SDS011;29815;48.184;11.268;2023-05-10T12:38:28;2.08;;;1.00;;
43877;SDS011;29815;48.184;11.268;2023-05-10T12:41:02;1.77;;;1.17;;
43877;SDS011;29815;48.184;11.268;2023-05-10T12:43:33;1.45;;;0.95;;
43877;SDS011;29815;48.184;11.268;2023-05-10T12:46:05;2.38;;;1.23;;
43877;SDS011;29815;48.184;11.268;2023-05-10T12:48:36;3.28;;;1.98;;
43877;SDS011;29815;48.184;11.268;2023-05-10T12:51:09;3.10;;;1.35;;
43877;SDS011;29815;48.184;11.268;2023-05-10T12:53:40;2.28;;;1.23;;
43877;SDS011;29815;48.184;11.268;2023-05-10T12:56:13;2.60;;;1.00;;
43877;SDS011;29815;48.184;11.268;2023-05-10T12:58:42;4.03;;;1.17;;
43877;SDS011;29815;48.184;11.268;2023-05-10T13:01:15;2.75;;;1.00;;
43877;SDS011;29815;48.184;11.268;2023-05-10T13:03:45;5.03;;;1.90;;
43877;SDS011;29815;48.184;11.268;2023-05-10T13:06:16;3.20;;;1.50;;
43877;SDS011;29815;48.184;11.268;2023-05-10T13:08:46;2.70;;;1.17;;
43877;SDS011;29815;48.184;11.268;2023-05-10T13:11:15;2.90;;;1.48;;
43877;SDS011;29815;48.184;11.268;2023-05-10T13:13:47;3.72;;;1.60;;
43877;SDS011;29815;48.184;11.268;2023-05-10T13:16:16;2.60;;;1.27;;
43877;SDS011;29815;48.184;11.268;2023-05-10T13:18:46;2.80;;;1.52;;
43877;SDS011;29815;48.184;11.268;2023-05-10T13:21:17;3.00;;;1.50;;
43877;SDS011;29815;48.184;11.268;2023-05-10T13:23:46;3.33;;;1.65;;
43877;SDS011;29815;48.184;11.268;2023-05-10T13:26:16;4.35;;;1.48;;
43877;SDS011;29815;48.184;11.268;2023-05-10T13:28:45;4.25;;;1.30;;
43877;SDS011;29815;48.184;11.268;2023-05-10T13:31:16;2.63;;;1.23;;
43877;SDS011;29815;48.184;11.268;2023-05-10T13:33:45;5.45;;;1.55;;
43877;SDS011;29815;48.184;11.268;2023-05-10T13:36:16;2.30;;;1.30;;
43877;SDS011;29815;48.184;11.268;2023-05-10T13:38:46;4.70;;;1.30;;
43877;SDS011;29815;48.184;11.268;2023-05-10T13:41:15;2.65;;;1.27;;
43877;SDS011;29815;48.184;11.268;2023-05-10T13:43:45;1.38;;;1.08;;
43877;SDS011;29815;48.184;11.268;2023-05-10T13:46:16;4.00;;;1.00;;
43877;SDS011;29815;48.184;11.268;2023-05-10T13:48:46;1.92;;;1.00;;
43877;SDS011;29815;48.184;11.268;2023-05-10T13:51:16;2.60;;;0.93;;
43877;SDS011;29815;48.184;11.268;2023-05-10T13:53:46;5.00;;;1.00;;
43877;SDS011;29815;48.184;11.268;2023-05-10T13:56:16;1.77;;;1.05;;
43877;SDS011;29815;48.184;11.268;2023-05-10T13:58:45;2.97;;;0.90;;
43877;SDS011;29815;48.184;11.268;2023-05-10T14:01:15;2.80;;;1.50;;
43877;SDS011;29815;48.184;11.268;2023-05-10T14:03:45;5.05;;;1.85;;
43877;SDS011;29815;48.184;11.268;2023-05-10T14:06:17;4.03;;;1.63;;
43877;SDS011;29815;48.184;11.268;2023-05-10T14:08:46;2.03;;;1.40;;
43877;SDS011;29815;48.184;11.268;2023-05-10T14:11:16;6.55;;;1.45;;
43877;SDS011;29815;48.184;11.268;2023-05-10T14:13:46;3.13;;;1.33;;
43877;SDS011;29815;48.184;11.268;2023-05-10T14:16:15;1.98;;;1.15;;
43877;SDS011;29815;48.184;11.268;2023-05-10T14:18:45;3.97;;;1.40;;
43877;SDS011;29815;48.184;11.268;2023-05-10T14:21:14;2.00;;;1.27;;
43877;SDS011;29815;48.184;11.268;2023-05-10T14:23:45;4.10;;;0.80;;
43877;SDS011;29815;48.184;11.268;2023-05-10T14:26:15;1.92;;;1.20;;
43877;SDS011;29815;48.184;11.268;2023-05-10T14:28:45;3.10;;;1.67;;
43877;SDS011;29815;48.184;11.268;2023-05-10T14:31:14;3.58;;;1.52;;
43877;SDS011;29815;48.184;11.268;2023-05-10T14:33:47;2.92;;;1.80;;
43877;SDS011;29815;48.184;11.268;2023-05-10T14:36:18;2.72;;;1.67;;
43877;SDS011;29815;48.184;11.268;2023-05-10T14:38:47;2.10;;;1.40;;
43877;SDS011;29815;48.184;11.268;2023-05-10T14:41:17;7.88;;;2.25;;
43877;SDS011;29815;48.184;11.268;2023-05-10T14:43:47;3.55;;;2.10;;
43877;SDS011;29815;48.184;11.268;2023-05-10T14:46:17;1.75;;;1.20;;
43877;SDS011;29815;48.184;11.268;2023-05-10T14:48:47;3.90;;;1.42;;
43877;SDS011;29815;48.184;11.268;2023-05-10T14:51:18;2.95;;;1.10;;
43877;SDS011;29815;48.184;11.268;2023-05-10T14:53:49;1.87;;;1.40;;
43877;SDS011;29815;48.184;11.268;2023-05-10T14:56:18;2.30;;;1.13;;
43877;SDS011;29815;48.184;11.268;2023-05-10T14:58:49;2.95;;;1.33;;
43877;SDS011;29815;48.184;11.268;2023-05-10T15:01:19;2.33;;;1.45;;
43877;SDS011;29815;48.184;11.268;2023-05-10T15:03:49;1.75;;;1.40;;
43877;SDS011;29815;48.184;11.268;2023-05-10T15:06:30;3.22;;;1.20;;
43877;SDS011;29815;48.184;11.268;2023-05-10T15:09:00;2.45;;;1.50;;
43877;SDS011;29815;48.184;11.268;2023-05-10T15:11:31;2.17;;;1.30;;
43877;SDS011;29815;48.184;11.268;2023-05-10T15:14:00;3.17;;;1.77;;
43877;SDS011;29815;48.184;11.268;2023-05-10T15:16:30;3.67;;;1.80;;
43877;SDS011;29815;48.184;11.268;2023-05-10T15:19:02;3.78;;;2.30;;
43877;SDS011;29815;48.184;11.268;2023-05-10T15:21:33;2.05;;;1.50;;
43877;SDS011;29815;48.184;11.268;2023-05-10T15:24:06;6.60;;;2.10;;
43877;SDS011;29815;48.184;11.268;2023-05-10T15:26:36;2.28;;;1.80;;
43877;SDS011;29815;48.184;11.268;2023-05-10T15:29:05;4.50;;;1.65;;
43877;SDS011;29815;48.184;11.268;2023-05-10T15:31:35;3.00;;;1.17;;
43877;SDS011;29815;48.184;11.268;2023-05-10T15:34:06;2.08;;;1.58;;
43877;SDS011;29815;48.184;11.268;2023-05-10T15:36:37;1.95;;;1.20;;
43877;SDS011;29815;48.184;11.268;2023-05-10T15:39:07;3.65;;;1.60;;
43877;SDS011;29815;48.184;11.268;2023-05-10T15:41:37;2.25;;;1.30;;
43877;SDS011;29815;48.184;11.268;2023-05-10T15:44:06;3.28;;;1.42;;
43877;SDS011;29815;48.184;11.268;2023-05-10T15:46:36;1.15;;;1.00;;
43877;SDS011;29815;48.184;11.268;2023-05-10T15:49:06;1.60;;;1.13;;
43877;SDS011;29815;48.184;11.268;2023-05-10T15:51:35;2.70;;;1.38;;
43877;SDS011;29815;48.184;11.268;2023-05-10T15:54:06;3.60;;;1.30;;
43877;SDS011;29815;48.184;11.268;2023-05-10T15:56:38;3.25;;;1.50;;
43877;SDS011;29815;48.184;11.268;2023-05-10T15:59:08;1.85;;;1.20;;
43877;SDS011;29815;48.184;11.268;2023-05-10T16:01:38;1.90;;;1.30;;
43877;SDS011;29815;48.184;11.268;2023-05-10T16:04:08;1.80;;;1.45;;
43877;SDS011;29815;48.184;11.268;2023-05-10T16:06:38;2.92;;;1.40;;
43877;SDS011;29815;48.184;11.268;2023-05-10T16:09:08;5.60;;;1.58;;
43877;SDS011;29815;48.184;11.268;2023-05-10T16:11:38;2.47;;;1.35;;
43877;SDS011;29815;48.184;11.268;2023-05-10T16:14:08;3.70;;;1.40;;
43877;SDS011;29815;48.184;11.268;2023-05-10T16:16:38;3.80;;;1.48;;
43877;SDS011;29815;48.184;11.268;2023-05-10T16:19:07;2.13;;;1.02;;
43877;SDS011;29815;48.184;11.268;2023-05-10T16:21:38;0.85;;;0.70;;
43877;SDS011;29815;48.184;11.268;2023-05-10T16:24:08;2.40;;;0.95;;
43877;SDS011;29815;48.184;11.268;2023-05-10T16:26:38;2.08;;;0.75;;
43877;SDS011;29815;48.184;11.268;2023-05-10T16:29:08;1.48;;;0.70;;
43877;SDS011;29815;48.184;11.268;2023-05-10T16:31:37;0.88;;;0.80;;
43877;SDS011;29815;48.184;11.268;2023-05-10T16:34:07;3.90;;;1.08;;
43877;SDS011;29815;48.184;11.268;2023-05-10T16:36:36;1.08;;;0.85;;
43877;SDS011;29815;48.184;11.268;2023-05-10T16:39:07;1.88;;;1.30;;
43877;SDS011;29815;48.184;11.268;2023-05-10T16:41:37;5.53;;;1.33;;
43877;SDS011;29815;48.184;11.268;2023-05-10T16:44:07;3.65;;;0.70;;
43877;SDS011;29815;48.184;11.268;2023-05-10T16:46:36;4.65;;;1.27;;
43877;SDS011;29815;48.184;11.268;2023-05-10T16:49:07;2.13;;;1.17;;
43877;SDS011;29815;48.184;11.268;2023-05-10T16:51:40;1.65;;;1.10;;
43877;SDS011;29815;48.184;11.268;2023-05-10T16:54:10;3.78;;;1.60;;
43877;SDS011;29815;48.184;11.268;2023-05-10T16:56:41;2.95;;;1.27;;
43877;SDS011;29815;48.184;11.268;2023-05-10T16:59:10;3.22;;;1.70;;
43877;SDS011;29815;48.184;11.268;2023-05-10T17:01:40;2.65;;;1.63;;
43877;SDS011;29815;48.184;11.268;2023-05-10T17:04:10;3.65;;;1.77;;
43877;SDS011;29815;48.184;11.268;2023-05-10T17:06:41;2.67;;;1.65;;
43877;SDS011;29815;48.184;11.268;2023-05-10T17:09:11;3.30;;;1.65;;
43877;SDS011;29815;48.184;11.268;2023-05-10T17:11:40;4.50;;;1.75;;
43877;SDS011;29815;48.184;11.268;2023-05-10T17:14:10;3.88;;;2.33;;
43877;SDS011;29815;48.184;11.268;2023-05-10T17:16:40;5.63;;;2.20;;
43877;SDS011;29815;48.184;11.268;2023-05-10T17:19:09;4.57;;;1.60;;
43877;SDS011;29815;48.184;11.268;2023-05-10T17:21:39;2.55;;;1.60;;
43877;SDS011;29815;48.184;11.268;2023-05-10T17:24:10;2.75;;;2.08;;
43877;SDS011;29815;48.184;11.268;2023-05-10T17:26:40;5.03;;;2.03;;
43877;SDS011;29815;48.184;11.268;2023-05-10T17:29:09;2.78;;;1.90;;
43877;SDS011;29815;48.184;11.268;2023-05-10T17:31:40;4.20;;;2.60;;
43877;SDS011;29815;48.184;11.268;2023-05-10T17:34:10;4.32;;;2.38;;
43877;SDS011;29815;48.184;11.268;2023-05-10T17:36:39;3.72;;;2.40;;
43877;SDS011;29815;48.184;11.268;2023-05-10T17:39:10;3.75;;;1.90;;
43877;SDS011;29815;48.184;11.268;2023-05-10T17:41:40;4.03;;;2.17;;
43877;SDS011;29815;48.184;11.268;2023-05-10T17:44:09;2.67;;;1.90;;
43877;SDS011;29815;48.184;11.268;2023-05-10T17:46:39;5.55;;;3.60;;
43877;SDS011;29815;48.184;11.268;2023-05-10T17:49:09;6.75;;;3.78;;
43877;SDS011;29815;48.184;11.268;2023-05-10T17:51:38;7.63;;;4.50;;
43877;SDS011;29815;48.184;11.268;2023-05-10T17:54:11;9.48;;;4.00;;
43877;SDS011;29815;48.184;11.268;2023-05-10T17:56:41;7.15;;;3.75;;
43877;SDS011;29815;48.184;11.268;2023-05-10T17:59:10;4.70;;;2.05;;
43877;SDS011;29815;48.184;11.268;2023-05-10T18:01:40;5.10;;;2.78;;
43877;SDS011;29815;48.184;11.268;2023-05-10T18:04:10;4.00;;;2.85;;
43877;SDS011;29815;48.184;11.268;2023-05-10T18:06:40;5.10;;;2.30;;
43877;SDS011;29815;48.184;11.268;2023-05-10T18:09:12;4.90;;;2.70;;
43877;SDS011;29815;48.184;11.268;2023-05-10T18:11:43;3.33;;;1.80;;
43877;SDS011;29815;48.184;11.268;2023-05-10T18:14:12;5.63;;;3.17;;
43877;SDS011;29815;48.184;11.268;2023-05-10T18:16:58;4.13;;;2.17;;
43877;SDS011;29815;48.184;11.268;2023-05-10T18:19:28;3.92;;;1.92;;
43877;SDS011;29815;48.184;11.268;2023-05-10T18:21:57;3.10;;;1.70;;
43877;SDS011;29815;48.184;11.268;2023-05-10T18:24:29;1.88;;;1.60;;
43877;SDS011;29815;48.184;11.268;2023-05-10T18:27:01;2.47;;;1.80;;
43877;SDS011;29815;48.184;11.268;2023-05-10T18:29:32;4.03;;;2.05;;
43877;SDS011;29815;48.184;11.268;2023-05-10T18:32:02;4.78;;;1.60;;
43877;SDS011;29815;48.184;11.268;2023-05-10T18:34:33;3.53;;;1.55;;
43877;SDS011;29815;48.184;11.268;2023-05-10T18:37:03;4.25;;;1.58;;
43877;SDS011;29815;48.184;11.268;2023-05-10T18:39:36;7.07;;;2.65;;
43877;SDS011;29815;48.184;11.268;2023-05-10T18:42:07;4.15;;;1.90;;
43877;SDS011;29815;48.184;11.268;2023-05-10T18:44:36;3.40;;;1.92;;
43877;SDS011;29815;48.184;11.268;2023-05-10T18:47:07;3.60;;;2.00;;
43877;SDS011;29815;48.184;11.268;2023-05-10T18:49:41;3.55;;;2.20;;
43877;SDS011;29815;48.184;11.268;2023-05-10T18:52:11;2.40;;;1.63;;
43877;SDS011;29815;48.184;11.268;2023-05-10T18:54:43;3.50;;;2.10;;
43877;SDS011;29815;48.184;11.268;2023-05-10T18:57:14;3.25;;;1.95;;
43877;SDS011;29815;48.184;11.268;2023-05-10T18:59:44;2.75;;;1.80;;
43877;SDS011;29815;48.184;11.268;2023-05-10T19:02:13;4.30;;;1.80;;
43877;SDS011;29815;48.184;11.268;2023-05-10T19:04:44;3.65;;;1.85;;
43877;SDS011;29815;48.184;11.268;2023-05-10T19:07:13;3.28;;;1.83;;
43877;SDS011;29815;48.184;11.268;2023-05-10T19:09:44;4.47;;;1.83;;
43877;SDS011;29815;48.184;11.268;2023-05-10T19:12:14;2.72;;;2.20;;
43877;SDS011;29815;48.184;11.268;2023-05-10T19:14:44;2.85;;;1.92;;
43877;SDS011;29815;48.184;11.268;2023-05-10T19:17:14;2.20;;;1.65;;
43877;SDS011;29815;48.184;11.268;2023-05-10T19:19:44;3.05;;;1.75;;
43877;SDS011;29815;48.184;11.268;2023-05-10T19:22:13;3.13;;;1.75;;
43877;SDS011;29815;48.184;11.268;2023-05-10T19:24:51;3.30;;;1.80;;
43877;SDS011;29815;48.184;11.268;2023-05-10T19:27:21;3.22;;;1.55;;
43877;SDS011;29815;48.184;11.268;2023-05-10T19:29:51;3.67;;;2.00;;
43877;SDS011;29815;48.184;11.268;2023-05-10T19:32:22;4.65;;;2.70;;
43877;SDS011;29815;48.184;11.268;2023-05-10T19:34:52;3.65;;;1.67;;
43877;SDS011;29815;48.184;11.268;2023-05-10T19:37:21;3.85;;;1.65;;
43877;SDS011;29815;48.184;11.268;2023-05-10T19:39:52;4.30;;;2.15;;
43877;SDS011;29815;48.184;11.268;2023-05-10T19:42:22;4.45;;;2.13;;
43877;SDS011;29815;48.184;11.268;2023-05-10T19:44:51;4.72;;;2.40;;
43877;SDS011;29815;48.184;11.268;2023-05-10T19:47:21;3.67;;;2.40;;
43877;SDS011;29815;48.184;11.268;2023-05-10T19:49:51;3.75;;;2.90;;
43877;SDS011;29815;48.184;11.268;2023-05-10T19:52:20;3.42;;;1.80;;
43877;SDS011;29815;48.184;11.268;2023-05-10T19:54:50;4.00;;;3.60;;
43877;SDS011;29815;48.184;11.268;2023-05-10T19:57:20;4.03;;;2.17;;
43877;SDS011;29815;48.184;11.268;2023-05-10T19:59:51;2.38;;;2.05;;
43877;SDS011;29815;48.184;11.268;2023-05-10T20:02:21;3.92;;;2.20;;
43877;SDS011;29815;48.184;11.268;2023-05-10T20:04:50;2.97;;;2.25;;
43877;SDS011;29815;48.184;11.268;2023-05-10T20:07:20;2.38;;;2.05;;
43877;SDS011;29815;48.184;11.268;2023-05-10T20:09:49;2.63;;;1.92;;
43877;SDS011;29815;48.184;11.268;2023-05-10T20:12:20;2.58;;;2.10;;
43877;SDS011;29815;48.184;11.268;2023-05-10T20:14:49;3.70;;;1.90;;
43877;SDS011;29815;48.184;11.268;2023-05-10T20:17:19;2.17;;;1.58;;
43877;SDS011;29815;48.184;11.268;2023-05-10T20:19:49;6.70;;;2.47;;
43877;SDS011;29815;48.184;11.268;2023-05-10T20:22:18;2.05;;;1.50;;
43877;SDS011;29815;48.184;11.268;2023-05-10T20:24:48;2.13;;;1.60;;
43877;SDS011;29815;48.184;11.268;2023-05-10T20:27:21;3.22;;;1.80;;
43877;SDS011;29815;48.184;11.268;2023-05-10T20:29:51;4.43;;;1.85;;
43877;SDS011;29815;48.184;11.268;2023-05-10T20:32:20;4.88;;;1.80;;
43877;SDS011;29815;48.184;11.268;2023-05-10T20:34:50;2.28;;;1.88;;
43877;SDS011;29815;48.184;11.268;2023-05-10T20:37:22;3.78;;;1.80;;
43877;SDS011;29815;48.184;11.268;2023-05-10T20:39:57;3.45;;;2.17;;
43877;SDS011;29815;48.184;11.268;2023-05-10T20:42:29;7.63;;;2.80;;
43877;SDS011;29815;48.184;11.268;2023-05-10T20:44:58;3.00;;;1.50;;
43877;SDS011;29815;48.184;11.268;2023-05-10T20:47:29;2.42;;;1.67;;
43877;SDS011;29815;48.184;11.268;2023-05-10T20:49:59;2.88;;;2.05;;
43877;SDS011;29815;48.184;11.268;2023-05-10T20:52:28;5.65;;;1.77;;
43877;SDS011;29815;48.184;11.268;2023-05-10T20:54:58;3.42;;;1.98;;
43877;SDS011;29815;48.184;11.268;2023-05-10T20:57:30;3.95;;;2.20;;
43877;SDS011;29815;48.184;11.268;2023-05-10T20:59:59;4.07;;;2.17;;
43877;SDS011;29815;48.184;11.268;2023-05-10T21:02:29;2.92;;;1.83;;
43877;SDS011;29815;48.184;11.268;2023-05-10T21:04:59;3.95;;;1.42;;
43877;SDS011;29815;48.184;11.268;2023-05-10T21:07:28;4.88;;;1.88;;
43877;SDS011;29815;48.184;11.268;2023-05-10T21:09:59;3.38;;;1.50;;
43877;SDS011;29815;48.184;11.268;2023-05-10T21:12:30;4.30;;;2.35;;
43877;SDS011;29815;48.184;11.268;2023-05-10T21:15:00;2.83;;;2.00;;
43877;SDS011;29815;48.184;11.268;2023-05-10T21:17:30;2.35;;;1.70;;
43877;SDS011;29815;48.184;11.268;2023-05-10T21:20:00;3.17;;;1.67;;
43877;SDS011;29815;48.184;11.268;2023-05-10T21:22:30;3.53;;;1.50;;
43877;SDS011;29815;48.184;11.268;2023-05-10T21:24:59;1.45;;;1.10;;
43877;SDS011;29815;48.184;11.268;2023-05-10T21:27:30;5.55;;;2.42;;
43877;SDS011;29815;48.184;11.268;2023-05-10T21:30:00;2.03;;;1.33;;
43877;SDS011;29815;48.184;11.268;2023-05-10T21:32:29;3.38;;;1.45;;
43877;SDS011;29815;48.184;11.268;2023-05-10T21:34:59;2.53;;;1.60;;
43877;SDS011;29815;48.184;11.268;2023-05-10T21:37:28;2.33;;;1.60;;
43877;SDS011;29815;48.184;11.268;2023-05-10T21:39:59;3.80;;;1.52;;
43877;SDS011;29815;48.184;11.268;2023-05-10T21:42:32;2.30;;;1.33;;
43877;SDS011;29815;48.184;11.268;2023-05-10T21:45:02;2.25;;;1.45;;
43877;SDS011;29815;48.184;11.268;2023-05-10T21:47:32;2.85;;;1.20;;
43877;SDS011;29815;48.184;11.268;2023-05-10T21:50:02;1.77;;;1.17;;
43877;SDS011;29815;48.184;11.268;2023-05-10T21:52:33;2.42;;;1.63;;
43877;SDS011;29815;48.184;11.268;2023-05-10T21:55:03;3.17;;;1.10;;
43877;SDS011;29815;48.184;11.268;2023-05-10T21:57:36;1.65;;;1.10;;
43877;SDS011;29815;48.184;11.268;2023-05-10T22:00:06;6.25;;;1.85;;
43877;SDS011;29815;48.184;11.268;2023-05-10T22:05:08;2.55;;;1.10;;
43877;SDS011;29815;48.184;11.268;2023-05-10T22:07:38;2.03;;;1.17;;
43877;SDS011;29815;48.184;11.268;2023-05-10T22:10:08;3.72;;;1.30;;
43877;SDS011;29815;48.184;11.268;2023-05-10T22:12:39;2.03;;;1.50;;
43877;SDS011;29815;48.184;11.268;2023-05-10T22:15:09;1.50;;;1.30;;
43877;SDS011;29815;48.184;11.268;2023-05-10T22:17:39;2.05;;;1.10;;
43877;SDS011;29815;48.184;11.268;2023-05-10T22:20:09;3.97;;;1.33;;
43877;SDS011;29815;48.184;11.268;2023-05-10T22:22:39;1.90;;;1.20;;
43877;SDS011;29815;48.184;11.268;2023-05-10T22:25:08;3.25;;;1.42;;
43877;SDS011;29815;48.184;11.268;2023-05-10T22:27:40;1.75;;;1.40;;
43877;SDS011;29815;48.184;11.268;2023-05-10T22:30:09;2.63;;;1.30;;
43877;SDS011;29815;48.184;11.268;2023-05-10T22:32:39;2.25;;;1.35;;
43877;SDS011;29815;48.184;11.268;2023-05-10T22:35:09;3.15;;;1.60;;
43877;SDS011;29815;48.184;11.268;2023-05-10T22:37:38;4.47;;;1.65;;
43877;SDS011;29815;48.184;11.268;2023-05-10T22:40:08;2.60;;;1.88;;
43877;SDS011;29815;48.184;11.268;2023-05-10T22:42:41;2.13;;;1.35;;
43877;SDS011;29815;48.184;11.268;2023-05-10T22:45:10;3.15;;;1.60;;
43877;SDS011;29815;48.184;11.268;2023-05-10T22:47:40;5.80;;;1.80;;
43877;SDS011;29815;48.184;11.268;2023-05-10T22:50:09;3.08;;;1.70;;
43877;SDS011;29815;48.184;11.268;2023-05-10T22:52:42;3.38;;;1.73;;
43877;SDS011;29815;48.184;11.268;2023-05-10T22:55:11;3.95;;;1.58;;
43877;SDS011;29815;48.184;11.268;2023-05-10T22:57:42;2.88;;;1.50;;
43877;SDS011;29815;48.184;11.268;2023-05-10T23:00:12;2.92;;;1.50;;
43877;SDS011;29815;48.184;11.268;2023-05-10T23:02:44;4.47;;;2.10;;
43877;SDS011;29815;48.184;11.268;2023-05-10T23:05:13;2.15;;;1.45;;
43877;SDS011;29815;48.184;11.268;2023-05-10T23:07:43;3.33;;;1.80;;
43877;SDS011;29815;48.184;11.268;2023-05-10T23:10:22;3.05;;;1.85;;
43877;SDS011;29815;48.184;11.268;2023-05-10T23:12:53;1.70;;;1.42;;
43877;SDS011;29815;48.184;11.268;2023-05-10T23:15:23;3.78;;;1.45;;
43877;SDS011;29815;48.184;11.268;2023-05-10T23:17:52;2.28;;;1.48;;
43877;SDS011;29815;48.184;11.268;2023-05-10T23:20:21;3.88;;;1.55;;
43877;SDS011;29815;48.184;11.268;2023-05-10T23:22:51;3.28;;;1.60;;
43877;SDS011;29815;48.184;11.268;2023-05-10T23:25:20;1.90;;;1.40;;
43877;SDS011;29815;48.184;11.268;2023-05-10T23:27:50;4.85;;;1.80;;
43877;SDS011;29815;48.184;11.268;2023-05-10T23:30:21;1.98;;;1.55;;
43877;SDS011;29815;48.184;11.268;2023-05-10T23:32:50;3.30;;;1.92;;
43877;SDS011;29815;48.184;11.268;2023-05-10T23:35:20;1.58;;;1.38;;
43877;SDS011;29815;48.184;11.268;2023-05-10T23:37:49;3.13;;;1.88;;
43877;SDS011;29815;48.184;11.268;2023-05-10T23:40:19;1.92;;;1.10;;
43877;SDS011;29815;48.184;11.268;2023-05-10T23:42:48;2.22;;;1.52;;
43877;SDS011;29815;48.184;11.268;2023-05-10T23:45:18;2.25;;;1.75;;
43877;SDS011;29815;48.184;11.268;2023-05-10T23:47:49;4.55;;;1.52;;
43877;SDS011;29815;48.184;11.268;2023-05-10T23:50:19;2.80;;;1.23;;
43877;SDS011;29815;48.184;11.268;2023-05-10T23:52:48;3.22;;;1.35;;
43877;SDS011;29815;48.184;11.268;2023-05-10T23:55:18;2.38;;;1.60;;
43877;SDS011;29815;48.184;11.268;2023-05-10T23:57:47;2.10;;;1.40;;
